sensor_id;sensor_type;location;lat;lon;timestamp;pressure;altitude;pressure_sealevel;temperature;humidity
61318;BME280;47201;40.428;-8.436;2023-06-22T00:00:12;100822.69;;;16.05;100.00
61318;BME280;47201;40.428;-8.436;2023-06-22T00:02:13;100828.97;;;15.99;100.00
61318;BME280;47201;40.428;-8.436;2023-06-22T00:04:13;100828.16;;;15.95;100.00
61318;BME280;47201;40.428;-8.436;2023-06-22T00:06:14;100823.53;;;16.07;100.00
61318;BME280;47201;40.428;-8.436;2023-06-22T00:08:15;100824.09;;;16.21;100.00
61318;BME280;47201;40.428;-8.436;2023-06-22T00:10:16;100824.97;;;16.20;100.00
61318;BME280;47201;40.428;-8.436;2023-06-22T00:12:17;100820.81;;;16.10;100.00
61318;BME280;47201;40.428;-8.436;2023-06-22T00:14:18;100814.97;;;15.95;100.00
61318;BME280;47201;40.428;-8.436;2023-06-22T00:16:18;100813.38;;;15.90;100.00
61318;BME280;47201;40.428;-8.436;2023-06-22T00:18:19;100817.91;;;15.83;100.00
61318;BME280;47201;40.428;-8.436;2023-06-22T00:20:20;100817.91;;;15.80;100.00
61318;BME280;47201;40.428;-8.436;2023-06-22T00:22:22;100817.91;;;15.81;100.00
61318;BME280;47201;40.428;-8.436;2023-06-22T00:24:28;100812.66;;;15.80;100.00
61318;BME280;47201;40.428;-8.436;2023-06-22T00:26:29;100816.25;;;15.76;100.00
61318;BME280;47201;40.428;-8.436;2023-06-22T00:28:30;100813.72;;;15.71;100.00
61318;BME280;47201;40.428;-8.436;2023-06-22T00:30:31;100822.47;;;15.73;100.00
61318;BME280;47201;40.428;-8.436;2023-06-22T00:32:32;100819.03;;;15.69;100.00
61318;BME280;47201;40.428;-8.436;2023-06-22T00:34:33;100825.19;;;15.68;100.00
61318;BME280;47201;40.428;-8.436;2023-06-22T00:36:34;100816.56;;;15.60;100.00
61318;BME280;47201;40.428;-8.436;2023-06-22T00:38:35;100821.09;;;15.53;100.00
61318;BME280;47201;40.428;-8.436;2023-06-22T00:40:40;100823.84;;;15.47;100.00
61318;BME280;47201;40.428;-8.436;2023-06-22T00:42:41;100823.09;;;15.42;100.00
61318;BME280;47201;40.428;-8.436;2023-06-22T00:44:42;100823.94;;;15.43;100.00
61318;BME280;47201;40.428;-8.436;2023-06-22T00:46:43;100826.56;;;15.44;100.00
61318;BME280;47201;40.428;-8.436;2023-06-22T00:48:43;100825.78;;;15.41;100.00
61318;BME280;47201;40.428;-8.436;2023-06-22T00:50:44;100815.31;;;15.34;100.00
61318;BME280;47201;40.428;-8.436;2023-06-22T00:52:45;100821.69;;;15.24;100.00
61318;BME280;47201;40.428;-8.436;2023-06-22T00:54:49;100819.94;;;15.23;100.00
61318;BME280;47201;40.428;-8.436;2023-06-22T00:56:53;100820.72;;;15.28;100.00
61318;BME280;47201;40.428;-8.436;2023-06-22T00:58:55;100823.19;;;15.37;100.00
61318;BME280;47201;40.428;-8.436;2023-06-22T01:00:57;100822.97;;;15.48;100.00
61318;BME280;47201;40.428;-8.436;2023-06-22T01:03:01;100821.91;;;15.59;100.00
61318;BME280;47201;40.428;-8.436;2023-06-22T01:05:02;100824.06;;;15.80;100.00
61318;BME280;47201;40.428;-8.436;2023-06-22T01:09:20;100827.75;;;15.71;100.00
61318;BME280;47201;40.428;-8.436;2023-06-22T01:11:25;100827.94;;;15.64;100.00
61318;BME280;47201;40.428;-8.436;2023-06-22T01:16:24;100828.84;;;15.61;100.00
61318;BME280;47201;40.428;-8.436;2023-06-22T01:18:29;100823.41;;;15.70;100.00
61318;BME280;47201;40.428;-8.436;2023-06-22T01:20:34;100831.97;;;15.80;100.00
61318;BME280;47201;40.428;-8.436;2023-06-22T01:25:15;100832.78;;;15.85;100.00
61318;BME280;47201;40.428;-8.436;2023-06-22T01:29:43;100830.34;;;15.75;100.00
61318;BME280;47201;40.428;-8.436;2023-06-22T01:31:45;100842.53;;;15.80;100.00
61318;BME280;47201;40.428;-8.436;2023-06-22T01:33:51;100833.66;;;15.86;100.00
61318;BME280;47201;40.428;-8.436;2023-06-22T01:35:53;100836.22;;;15.89;100.00
61318;BME280;47201;40.428;-8.436;2023-06-22T01:37:57;100831.78;;;15.91;100.00
61318;BME280;47201;40.428;-8.436;2023-06-22T01:39:58;100836.28;;;15.86;100.00
61318;BME280;47201;40.428;-8.436;2023-06-22T01:42:00;100830.25;;;15.79;100.00
61318;BME280;47201;40.428;-8.436;2023-06-22T01:44:01;100835.66;;;15.73;100.00
61318;BME280;47201;40.428;-8.436;2023-06-22T01:46:03;100832.22;;;15.68;100.00
61318;BME280;47201;40.428;-8.436;2023-06-22T01:48:04;100844.50;;;15.70;100.00
61318;BME280;47201;40.428;-8.436;2023-06-22T01:50:06;100841.84;;;15.70;100.00
61318;BME280;47201;40.428;-8.436;2023-06-22T01:52:07;100842.81;;;15.66;100.00
61318;BME280;47201;40.428;-8.436;2023-06-22T01:54:07;100848.84;;;15.71;100.00
61318;BME280;47201;40.428;-8.436;2023-06-22T01:56:09;100842.66;;;15.74;100.00
61318;BME280;47201;40.428;-8.436;2023-06-22T01:58:09;100833.00;;;15.73;100.00
61318;BME280;47201;40.428;-8.436;2023-06-22T02:00:14;100841.47;;;15.89;100.00
61318;BME280;47201;40.428;-8.436;2023-06-22T02:02:20;100848.44;;;15.92;100.00
61318;BME280;47201;40.428;-8.436;2023-06-22T02:04:33;100839.50;;;16.00;100.00
61318;BME280;47201;40.428;-8.436;2023-06-22T02:06:37;100843.75;;;16.06;100.00
61318;BME280;47201;40.428;-8.436;2023-06-22T02:08:51;100851.50;;;16.14;100.00
61318;BME280;47201;40.428;-8.436;2023-06-22T02:10:55;100847.72;;;16.26;100.00
61318;BME280;47201;40.428;-8.436;2023-06-22T02:12:57;100842.50;;;16.23;100.00
61318;BME280;47201;40.428;-8.436;2023-06-22T02:14:59;100848.72;;;16.20;100.00
61318;BME280;47201;40.428;-8.436;2023-06-22T02:17:01;100853.09;;;16.20;100.00
61318;BME280;47201;40.428;-8.436;2023-06-22T02:19:02;100855.78;;;16.18;100.00
61318;BME280;47201;40.428;-8.436;2023-06-22T02:21:08;100856.69;;;16.17;100.00
61318;BME280;47201;40.428;-8.436;2023-06-22T02:23:08;100856.44;;;16.29;100.00
61318;BME280;47201;40.428;-8.436;2023-06-22T02:25:09;100857.25;;;16.31;100.00
61318;BME280;47201;40.428;-8.436;2023-06-22T02:27:10;100865.19;;;16.30;100.00
61318;BME280;47201;40.428;-8.436;2023-06-22T02:29:11;100871.31;;;16.32;100.00
61318;BME280;47201;40.428;-8.436;2023-06-22T02:31:11;100866.94;;;16.31;100.00
61318;BME280;47201;40.428;-8.436;2023-06-22T02:33:12;100862.47;;;16.34;100.00
61318;BME280;47201;40.428;-8.436;2023-06-22T02:35:13;100863.25;;;16.38;100.00
61318;BME280;47201;40.428;-8.436;2023-06-22T02:37:14;100858.81;;;16.40;100.00
61318;BME280;47201;40.428;-8.436;2023-06-22T02:39:15;100861.47;;;16.40;100.00
61318;BME280;47201;40.428;-8.436;2023-06-22T02:41:16;100866.72;;;16.40;100.00
61318;BME280;47201;40.428;-8.436;2023-06-22T02:43:19;100853.53;;;16.40;100.00
61318;BME280;47201;40.428;-8.436;2023-06-22T02:45:20;100858.84;;;16.39;100.00
61318;BME280;47201;40.428;-8.436;2023-06-22T02:47:20;100857.94;;;16.40;100.00
61318;BME280;47201;40.428;-8.436;2023-06-22T02:49:21;100850.91;;;16.39;100.00
61318;BME280;47201;40.428;-8.436;2023-06-22T02:51:22;100856.28;;;16.36;100.00
61318;BME280;47201;40.428;-8.436;2023-06-22T02:53:23;100849.31;;;16.31;100.00
61318;BME280;47201;40.428;-8.436;2023-06-22T02:55:23;100849.38;;;16.30;100.00
61318;BME280;47201;40.428;-8.436;2023-06-22T02:57:29;100844.84;;;16.35;100.00
61318;BME280;47201;40.428;-8.436;2023-06-22T02:59:30;100856.19;;;16.40;100.00
61318;BME280;47201;40.428;-8.436;2023-06-22T03:01:37;100856.97;;;16.44;100.00
61318;BME280;47201;40.428;-8.436;2023-06-22T03:03:48;100850.81;;;16.43;100.00
61318;BME280;47201;40.428;-8.436;2023-06-22T03:05:49;100855.16;;;16.46;100.00
61318;BME280;47201;40.428;-8.436;2023-06-22T03:07:50;100865.63;;;16.49;100.00
61318;BME280;47201;40.428;-8.436;2023-06-22T03:09:51;100861.19;;;16.51;100.00
61318;BME280;47201;40.428;-8.436;2023-06-22T03:11:52;100864.78;;;16.48;100.00
61318;BME280;47201;40.428;-8.436;2023-06-22T03:13:57;100858.38;;;16.59;100.00
61318;BME280;47201;40.428;-8.436;2023-06-22T03:15:58;100860.22;;;16.55;100.00
61318;BME280;47201;40.428;-8.436;2023-06-22T03:18:00;100857.56;;;16.57;100.00
61318;BME280;47201;40.428;-8.436;2023-06-22T03:20:02;100864.47;;;16.61;100.00
61318;BME280;47201;40.428;-8.436;2023-06-22T03:22:09;100866.06;;;16.68;100.00
61318;BME280;47201;40.428;-8.436;2023-06-22T03:24:10;100869.44;;;16.75;100.00
61318;BME280;47201;40.428;-8.436;2023-06-22T03:26:11;100864.06;;;16.78;100.00
61318;BME280;47201;40.428;-8.436;2023-06-22T03:28:12;100867.59;;;16.78;100.00
61318;BME280;47201;40.428;-8.436;2023-06-22T03:30:13;100867.59;;;16.77;100.00
61318;BME280;47201;40.428;-8.436;2023-06-22T03:32:13;100872.03;;;16.76;100.00
61318;BME280;47201;40.428;-8.436;2023-06-22T03:34:14;100872.06;;;16.75;100.00
61318;BME280;47201;40.428;-8.436;2023-06-22T03:36:16;100884.34;;;16.76;100.00
61318;BME280;47201;40.428;-8.436;2023-06-22T03:38:19;100887.81;;;16.78;100.00
61318;BME280;47201;40.428;-8.436;2023-06-22T03:40:20;100891.31;;;16.80;100.00
61318;BME280;47201;40.428;-8.436;2023-06-22T03:42:20;100893.03;;;16.81;100.00
61318;BME280;47201;40.428;-8.436;2023-06-22T03:44:21;100896.47;;;16.83;100.00
61318;BME280;47201;40.428;-8.436;2023-06-22T03:46:22;100886.81;;;16.84;100.00
61318;BME280;47201;40.428;-8.436;2023-06-22T03:48:22;100883.22;;;16.86;100.00
61318;BME280;47201;40.428;-8.436;2023-06-22T03:50:23;100884.13;;;16.85;100.00
61318;BME280;47201;40.428;-8.436;2023-06-22T03:52:24;100884.13;;;16.85;100.00
61318;BME280;47201;40.428;-8.436;2023-06-22T03:54:25;100883.16;;;16.88;100.00
61318;BME280;47201;40.428;-8.436;2023-06-22T03:56:26;100877.03;;;16.87;100.00
61318;BME280;47201;40.428;-8.436;2023-06-22T03:58:27;100877.09;;;16.86;100.00
61318;BME280;47201;40.428;-8.436;2023-06-22T04:00:33;100877.00;;;16.89;100.00
61318;BME280;47201;40.428;-8.436;2023-06-22T04:02:33;100885.03;;;16.84;100.00
61318;BME280;47201;40.428;-8.436;2023-06-22T04:04:34;100884.22;;;16.82;100.00
61318;BME280;47201;40.428;-8.436;2023-06-22T04:06:35;100882.22;;;16.90;100.00
61318;BME280;47201;40.428;-8.436;2023-06-22T04:08:36;100876.00;;;16.94;100.00
61318;BME280;47201;40.428;-8.436;2023-06-22T04:10:36;100885.63;;;16.97;100.00
61318;BME280;47201;40.428;-8.436;2023-06-22T04:12:37;100882.88;;;17.02;100.00
61318;BME280;47201;40.428;-8.436;2023-06-22T04:14:38;100887.25;;;17.03;100.00
61318;BME280;47201;40.428;-8.436;2023-06-22T04:16:39;100887.25;;;17.03;100.00
61318;BME280;47201;40.428;-8.436;2023-06-22T04:18:39;100890.75;;;17.03;100.00
61318;BME280;47201;40.428;-8.436;2023-06-22T04:20:40;100892.56;;;17.01;100.00
61318;BME280;47201;40.428;-8.436;2023-06-22T04:22:41;100899.66;;;16.99;100.00
61318;BME280;47201;40.428;-8.436;2023-06-22T04:24:41;100900.69;;;16.93;100.00
61318;BME280;47201;40.428;-8.436;2023-06-22T04:26:42;100903.34;;;16.90;100.00
61318;BME280;47201;40.428;-8.436;2023-06-22T04:28:45;100907.84;;;16.87;100.00
61318;BME280;47201;40.428;-8.436;2023-06-22T04:30:51;100907.88;;;16.85;100.00
61318;BME280;47201;40.428;-8.436;2023-06-22T04:32:52;100915.81;;;16.85;100.00
61318;BME280;47201;40.428;-8.436;2023-06-22T04:34:58;100908.94;;;16.78;100.00
61318;BME280;47201;40.428;-8.436;2023-06-22T04:37:00;100909.09;;;16.72;100.00
61318;BME280;47201;40.428;-8.436;2023-06-22T04:39:01;100909.09;;;16.72;100.00
61318;BME280;47201;40.428;-8.436;2023-06-22T04:41:02;100905.56;;;16.73;100.00
61318;BME280;47201;40.428;-8.436;2023-06-22T04:43:03;100911.63;;;16.76;100.00
61318;BME280;47201;40.428;-8.436;2023-06-22T04:45:04;100910.09;;;16.66;100.00
61318;BME280;47201;40.428;-8.436;2023-06-22T04:47:05;100906.31;;;16.78;100.00
61318;BME280;47201;40.428;-8.436;2023-06-22T04:49:09;100907.34;;;16.71;100.00
61318;BME280;47201;40.428;-8.436;2023-06-22T04:51:10;100903.72;;;16.76;100.00
61318;BME280;47201;40.428;-8.436;2023-06-22T04:53:12;100900.13;;;16.79;100.00
61318;BME280;47201;40.428;-8.436;2023-06-22T04:55:14;100899.16;;;16.81;100.00
61318;BME280;47201;40.428;-8.436;2023-06-22T04:57:18;100900.84;;;16.86;100.00
61318;BME280;47201;40.428;-8.436;2023-06-22T04:59:19;100906.03;;;16.89;100.00
61318;BME280;47201;40.428;-8.436;2023-06-22T05:01:19;100896.53;;;16.81;100.00
61318;BME280;47201;40.428;-8.436;2023-06-22T05:03:25;100902.69;;;16.82;100.00
61318;BME280;47201;40.428;-8.436;2023-06-22T05:05:26;100904.53;;;16.78;100.00
61318;BME280;47201;40.428;-8.436;2023-06-22T05:07:27;100906.34;;;16.76;100.00
61318;BME280;47201;40.428;-8.436;2023-06-22T05:09:28;100908.16;;;16.74;100.00
61318;BME280;47201;40.428;-8.436;2023-06-22T05:11:29;100915.16;;;16.75;100.00
61318;BME280;47201;40.428;-8.436;2023-06-22T05:13:30;100922.13;;;16.78;100.00
61318;BME280;47201;40.428;-8.436;2023-06-22T05:15:30;100915.06;;;16.80;100.00
61318;BME280;47201;40.428;-8.436;2023-06-22T05:17:37;100913.91;;;16.90;100.00
61318;BME280;47201;40.428;-8.436;2023-06-22T05:19:43;100922.53;;;16.99;100.00
61318;BME280;47201;40.428;-8.436;2023-06-22T05:21:48;100919.69;;;17.08;100.00
61318;BME280;47201;40.428;-8.436;2023-06-22T05:23:49;100925.00;;;17.06;100.00
61318;BME280;47201;40.428;-8.436;2023-06-22T05:25:51;100925.00;;;17.06;100.00
61318;BME280;47201;40.428;-8.436;2023-06-22T05:27:51;100929.41;;;17.06;100.00
61318;BME280;47201;40.428;-8.436;2023-06-22T05:29:52;100927.59;;;17.08;100.00
61318;BME280;47201;40.428;-8.436;2023-06-22T05:31:53;100924.91;;;17.09;100.00
61318;BME280;47201;40.428;-8.436;2023-06-22T05:33:57;100929.19;;;17.15;100.00
61318;BME280;47201;40.428;-8.436;2023-06-22T05:35:57;100936.22;;;17.16;100.00
61318;BME280;47201;40.428;-8.436;2023-06-22T05:37:58;100935.81;;;17.32;100.00
61318;BME280;47201;40.428;-8.436;2023-06-22T05:39:59;100935.53;;;17.42;100.00
61318;BME280;47201;40.428;-8.436;2023-06-22T05:41:59;100937.16;;;17.48;100.00
61318;BME280;47201;40.428;-8.436;2023-06-22T05:44:00;100945.03;;;17.50;100.00
61318;BME280;47201;40.428;-8.436;2023-06-22T05:46:01;100952.84;;;17.54;100.00
61318;BME280;47201;40.428;-8.436;2023-06-22T05:48:03;100954.41;;;17.62;100.00
61318;BME280;47201;40.428;-8.436;2023-06-22T05:50:04;100952.72;;;17.59;100.00
61318;BME280;47201;40.428;-8.436;2023-06-22T05:52:07;100961.59;;;17.56;100.00
61318;BME280;47201;40.428;-8.436;2023-06-22T05:54:08;100954.59;;;17.55;100.00
61318;BME280;47201;40.428;-8.436;2023-06-22T05:56:09;100963.31;;;17.57;100.00
61318;BME280;47201;40.428;-8.436;2023-06-22T05:58:10;100965.84;;;17.62;100.00
61318;BME280;47201;40.428;-8.436;2023-06-22T06:00:11;100963.06;;;17.67;100.00
61318;BME280;47201;40.428;-8.436;2023-06-22T06:02:12;100963.78;;;17.73;100.00
61318;BME280;47201;40.428;-8.436;2023-06-22T06:04:13;100969.94;;;17.74;100.00
61318;BME280;47201;40.428;-8.436;2023-06-22T06:06:14;100976.72;;;17.84;100.00
61318;BME280;47201;40.428;-8.436;2023-06-22T06:08:14;100983.94;;;17.77;100.00
61318;BME280;47201;40.428;-8.436;2023-06-22T06:10:15;100982.19;;;17.78;100.00
61318;BME280;47201;40.428;-8.436;2023-06-22T06:12:16;100977.66;;;17.82;100.00
61318;BME280;47201;40.428;-8.436;2023-06-22T06:14:16;100982.84;;;17.85;100.00
61318;BME280;47201;40.428;-8.436;2023-06-22T06:16:17;100980.09;;;17.89;100.00
61318;BME280;47201;40.428;-8.436;2023-06-22T06:18:18;100979.97;;;17.94;100.00
61318;BME280;47201;40.428;-8.436;2023-06-22T06:20:20;100990.28;;;18.05;100.00
61318;BME280;47201;40.428;-8.436;2023-06-22T06:22:21;100985.44;;;18.19;100.00
61318;BME280;47201;40.428;-8.436;2023-06-22T06:24:23;100988.03;;;18.22;100.00
61318;BME280;47201;40.428;-8.436;2023-06-22T06:26:27;100984.38;;;18.27;100.00
61318;BME280;47201;40.428;-8.436;2023-06-22T06:28:33;100982.53;;;18.29;100.00
61318;BME280;47201;40.428;-8.436;2023-06-22T06:30:34;100985.91;;;18.34;100.00
61318;BME280;47201;40.428;-8.436;2023-06-22T06:32:37;100991.84;;;18.42;100.00
61318;BME280;47201;40.428;-8.436;2023-06-22T06:34:38;100995.38;;;18.43;100.00
61318;BME280;47201;40.428;-8.436;2023-06-22T06:36:39;100990.13;;;18.41;100.00
61318;BME280;47201;40.428;-8.436;2023-06-22T06:38:39;100991.22;;;18.34;100.00
61318;BME280;47201;40.428;-8.436;2023-06-22T06:40:40;101001.72;;;18.37;100.00
61318;BME280;47201;40.428;-8.436;2023-06-22T06:42:43;101001.53;;;18.43;100.00
61318;BME280;47201;40.428;-8.436;2023-06-22T06:44:45;101002.50;;;18.41;100.00
61318;BME280;47201;40.428;-8.436;2023-06-22T06:46:46;101005.00;;;18.45;100.00
61318;BME280;47201;40.428;-8.436;2023-06-22T06:48:47;100998.81;;;18.46;100.00
61318;BME280;47201;40.428;-8.436;2023-06-22T06:50:47;101009.22;;;18.52;100.00
61318;BME280;47201;40.428;-8.436;2023-06-22T06:52:48;101007.59;;;18.47;100.00
61318;BME280;47201;40.428;-8.436;2023-06-22T06:54:50;101009.22;;;18.51;100.00
61318;BME280;47201;40.428;-8.436;2023-06-22T06:56:52;101008.09;;;18.60;100.00
61318;BME280;47201;40.428;-8.436;2023-06-22T06:58:52;101010.63;;;18.63;100.00
61318;BME280;47201;40.428;-8.436;2023-06-22T07:00:53;101011.25;;;18.73;100.00
61318;BME280;47201;40.428;-8.436;2023-06-22T07:02:57;101012.59;;;18.86;100.00
61318;BME280;47201;40.428;-8.436;2023-06-22T07:04:57;101017.97;;;18.83;100.00
61318;BME280;47201;40.428;-8.436;2023-06-22T07:07:00;101019.47;;;18.93;100.00
61318;BME280;47201;40.428;-8.436;2023-06-22T07:09:01;101024.50;;;19.01;100.00
61318;BME280;47201;40.428;-8.436;2023-06-22T07:11:03;101028.00;;;19.03;100.00
61318;BME280;47201;40.428;-8.436;2023-06-22T07:13:04;101027.28;;;18.98;100.00
61318;BME280;47201;40.428;-8.436;2023-06-22T07:15:09;101033.50;;;18.97;100.00
61318;BME280;47201;40.428;-8.436;2023-06-22T07:17:10;101037.81;;;18.99;100.00
61318;BME280;47201;40.428;-8.436;2023-06-22T07:19:12;101034.97;;;19.06;100.00
61318;BME280;47201;40.428;-8.436;2023-06-22T07:21:13;101038.78;;;18.97;100.00
61318;BME280;47201;40.428;-8.436;2023-06-22T07:23:14;101047.59;;;18.97;100.00
61318;BME280;47201;40.428;-8.436;2023-06-22T07:25:14;101047.81;;;18.90;100.00
61318;BME280;47201;40.428;-8.436;2023-06-22T07:27:15;101046.16;;;18.85;100.00
61318;BME280;47201;40.428;-8.436;2023-06-22T07:29:20;101042.53;;;18.88;100.00
61318;BME280;47201;40.428;-8.436;2023-06-22T07:31:21;101047.88;;;18.86;100.00
61318;BME280;47201;40.428;-8.436;2023-06-22T07:33:22;101053.03;;;18.91;100.00
61318;BME280;47201;40.428;-8.436;2023-06-22T07:35:22;101061.97;;;18.89;100.00
61318;BME280;47201;40.428;-8.436;2023-06-22T07:37:23;101059.97;;;18.97;100.00
61318;BME280;47201;40.428;-8.436;2023-06-22T07:39:24;101058.41;;;18.90;100.00
61318;BME280;47201;40.428;-8.436;2023-06-22T07:41:26;101059.97;;;18.97;100.00
61318;BME280;47201;40.428;-8.436;2023-06-22T07:43:27;101069.66;;;18.98;100.00
61318;BME280;47201;40.428;-8.436;2023-06-22T07:45:30;101060.88;;;18.96;100.00
61318;BME280;47201;40.428;-8.436;2023-06-22T07:47:34;101076.03;;;18.91;100.00
61318;BME280;47201;40.428;-8.436;2023-06-22T07:49:35;101071.66;;;18.90;100.00
61318;BME280;47201;40.428;-8.436;2023-06-22T07:51:36;101079.53;;;18.91;100.00
61318;BME280;47201;40.428;-8.436;2023-06-22T07:53:36;101077.91;;;18.87;100.00
61318;BME280;47201;40.428;-8.436;2023-06-22T07:55:37;101070.66;;;18.94;100.00
61318;BME280;47201;40.428;-8.436;2023-06-22T07:57:38;101085.50;;;18.99;100.00
61318;BME280;47201;40.428;-8.436;2023-06-22T07:59:38;101092.53;;;19.00;100.00
61318;BME280;47201;40.428;-8.436;2023-06-22T08:01:39;101101.28;;;19.02;100.00
61318;BME280;47201;40.428;-8.436;2023-06-22T08:03:40;101104.53;;;19.12;100.00
61318;BME280;47201;40.428;-8.436;2023-06-22T08:05:41;101101.59;;;19.22;100.00
61318;BME280;47201;40.428;-8.436;2023-06-22T08:07:41;101096.78;;;19.34;100.00
61318;BME280;47201;40.428;-8.436;2023-06-22T08:09:47;101102.63;;;19.44;100.00
61318;BME280;47201;40.428;-8.436;2023-06-22T08:11:48;101103.25;;;19.53;100.00
61318;BME280;47201;40.428;-8.436;2023-06-22T08:13:49;101107.66;;;19.54;100.00
61318;BME280;47201;40.428;-8.436;2023-06-22T08:15:50;101104.78;;;19.60;100.00
61318;BME280;47201;40.428;-8.436;2023-06-22T08:17:51;101102.53;;;19.74;100.00
61318;BME280;47201;40.428;-8.436;2023-06-22T08:19:52;101103.94;;;19.86;100.00
61318;BME280;47201;40.428;-8.436;2023-06-22T08:21:53;101107.38;;;19.90;100.00
61318;BME280;47201;40.428;-8.436;2023-06-22T08:23:54;101114.94;;;20.01;100.00
61318;BME280;47201;40.428;-8.436;2023-06-22T08:25:57;101112.97;;;20.07;100.00
61318;BME280;47201;40.428;-8.436;2023-06-22T08:27:58;101108.78;;;20.00;100.00
61318;BME280;47201;40.428;-8.436;2023-06-22T08:29:59;101102.88;;;20.17;100.00
61318;BME280;47201;40.428;-8.436;2023-06-22T08:32:00;101113.81;;;20.33;100.00
61318;BME280;47201;40.428;-8.436;2023-06-22T08:34:01;101116.66;;;20.28;100.00
61318;BME280;47201;40.428;-8.436;2023-06-22T08:36:02;101125.69;;;20.23;100.00
61318;BME280;47201;40.428;-8.436;2023-06-22T08:38:02;101123.09;;;20.21;100.00
61318;BME280;47201;40.428;-8.436;2023-06-22T08:40:05;101112.63;;;20.42;100.00
61318;BME280;47201;40.428;-8.436;2023-06-22T08:42:08;101117.06;;;20.41;100.00
61318;BME280;47201;40.428;-8.436;2023-06-22T08:44:08;101118.56;;;20.25;100.00
61318;BME280;47201;40.428;-8.436;2023-06-22T08:46:10;101118.72;;;20.44;100.00
61318;BME280;47201;40.428;-8.436;2023-06-22T08:48:11;101125.69;;;20.48;100.00
61318;BME280;47201;40.428;-8.436;2023-06-22T08:50:12;101130.97;;;20.73;99.29
61318;BME280;47201;40.428;-8.436;2023-06-22T08:52:13;101131.41;;;21.08;97.35
61318;BME280;47201;40.428;-8.436;2023-06-22T08:54:14;101132.06;;;20.91;98.38
61318;BME280;47201;40.428;-8.436;2023-06-22T08:56:14;101133.47;;;21.02;98.22
61318;BME280;47201;40.428;-8.436;2023-06-22T08:58:15;101129.75;;;21.06;97.96
61318;BME280;47201;40.428;-8.436;2023-06-22T09:00:15;101134.19;;;21.29;96.91
61318;BME280;47201;40.428;-8.436;2023-06-22T09:02:20;101130.66;;;21.51;94.69
61318;BME280;47201;40.428;-8.436;2023-06-22T09:04:21;101133.66;;;21.65;95.13
61318;BME280;47201;40.428;-8.436;2023-06-22T09:06:27;101121.75;;;21.74;93.02
61318;BME280;47201;40.428;-8.436;2023-06-22T09:08:28;101128.28;;;21.87;91.66
61318;BME280;47201;40.428;-8.436;2023-06-22T09:10:28;101136.81;;;21.96;90.60
61318;BME280;47201;40.428;-8.436;2023-06-22T09:12:29;101136.50;;;22.24;90.67
61318;BME280;47201;40.428;-8.436;2023-06-22T09:14:31;101143.78;;;22.19;88.68
61318;BME280;47201;40.428;-8.436;2023-06-22T09:16:31;101143.09;;;22.36;89.54
61318;BME280;47201;40.428;-8.436;2023-06-22T09:18:34;101143.78;;;22.19;88.09
61318;BME280;47201;40.428;-8.436;2023-06-22T09:20:34;101144.84;;;22.35;90.45
61318;BME280;47201;40.428;-8.436;2023-06-22T09:22:35;101140.50;;;22.55;88.11
61318;BME280;47201;40.428;-8.436;2023-06-22T09:24:36;101142.81;;;22.82;87.51
61318;BME280;47201;40.428;-8.436;2023-06-22T09:26:37;101148.88;;;23.05;85.43
61318;BME280;47201;40.428;-8.436;2023-06-22T09:28:37;101151.72;;;23.21;84.34
61318;BME280;47201;40.428;-8.436;2023-06-22T09:30:38;101143.66;;;23.22;85.36
61318;BME280;47201;40.428;-8.436;2023-06-22T09:32:38;101152.41;;;23.43;83.73
61318;BME280;47201;40.428;-8.436;2023-06-22T09:34:39;101148.53;;;23.32;83.03
61318;BME280;47201;40.428;-8.436;2023-06-22T09:36:41;101148.25;;;23.38;83.77
61318;BME280;47201;40.428;-8.436;2023-06-22T09:38:41;101139.91;;;23.63;82.78
61318;BME280;47201;40.428;-8.436;2023-06-22T09:40:42;101147.69;;;23.68;81.74
61318;BME280;47201;40.428;-8.436;2023-06-22T09:42:43;101152.31;;;23.64;82.38
61318;BME280;47201;40.428;-8.436;2023-06-22T09:44:43;101148.28;;;23.55;85.72
61318;BME280;47201;40.428;-8.436;2023-06-22T09:46:44;101158.06;;;23.74;83.24
61318;BME280;47201;40.428;-8.436;2023-06-22T09:48:44;101160.69;;;23.56;84.31
61318;BME280;47201;40.428;-8.436;2023-06-22T09:50:45;101156.19;;;23.39;85.36
61318;BME280;47201;40.428;-8.436;2023-06-22T09:52:46;101162.59;;;23.72;83.68
61318;BME280;47201;40.428;-8.436;2023-06-22T09:54:51;101160.41;;;23.80;83.91
61318;BME280;47201;40.428;-8.436;2023-06-22T09:56:51;101164.34;;;23.73;79.26
61318;BME280;47201;40.428;-8.436;2023-06-22T09:58:52;101160.94;;;23.87;83.46
61318;BME280;47201;40.428;-8.436;2023-06-22T10:00:53;101156.22;;;24.11;81.83
61318;BME280;47201;40.428;-8.436;2023-06-22T10:02:57;101160.84;;;24.76;80.71
61318;BME280;47201;40.428;-8.436;2023-06-22T10:04:58;101165.41;;;25.40;79.04
61318;BME280;47201;40.428;-8.436;2023-06-22T10:06:59;101166.53;;;25.52;77.59
61318;BME280;47201;40.428;-8.436;2023-06-22T10:08:59;101172.00;;;25.80;77.46
61318;BME280;47201;40.428;-8.436;2023-06-22T10:11:00;101171.25;;;26.39;77.04
61318;BME280;47201;40.428;-8.436;2023-06-22T10:13:08;101178.78;;;26.02;74.70
61318;BME280;47201;40.428;-8.436;2023-06-22T10:15:12;101173.84;;;25.64;79.21
61318;BME280;47201;40.428;-8.436;2023-06-22T10:17:13;101179.25;;;25.94;77.44
61318;BME280;47201;40.428;-8.436;2023-06-22T10:19:14;101175.41;;;25.68;77.68
61318;BME280;47201;40.428;-8.436;2023-06-22T10:21:14;101180.28;;;26.08;79.00
61318;BME280;47201;40.428;-8.436;2023-06-22T10:23:16;101176.44;;;26.57;76.78
61318;BME280;47201;40.428;-8.436;2023-06-22T10:25:16;101175.78;;;26.82;77.08
61318;BME280;47201;40.428;-8.436;2023-06-22T10:27:17;101182.09;;;26.96;77.11
61318;BME280;47201;40.428;-8.436;2023-06-22T10:29:18;101171.94;;;26.86;76.74